sensor_id;sensor_type;location;lat;lon;timestamp;P1;durP1;ratioP1;P2;durP2;ratioP2
74102;SDS011;62853;46.166;3.640;2022-08-21T00:00:29;6.03;;;4.82;;
74102;SDS011;62853;46.166;3.640;2022-08-21T00:02:58;5.68;;;4.68;;
74102;SDS011;62853;46.166;3.640;2022-08-21T00:05:26;5.35;;;4.85;;
74102;SDS011;62853;46.166;3.640;2022-08-21T00:07:52;7.25;;;4.88;;
74102;SDS011;62853;46.166;3.640;2022-08-21T00:10:17;7.53;;;4.68;;
74102;SDS011;62853;46.166;3.640;2022-08-21T00:12:43;6.15;;;4.65;;
74102;SDS011;62853;46.166;3.640;2022-08-21T00:15:10;6.22;;;4.82;;
74102;SDS011;62853;46.166;3.640;2022-08-21T00:17:38;5.95;;;4.88;;
74102;SDS011;62853;46.166;3.640;2022-08-21T00:20:05;6.72;;;5.13;;
74102;SDS011;62853;46.166;3.640;2022-08-21T00:22:33;6.95;;;5.00;;
74102;SDS011;62853;46.166;3.640;2022-08-21T00:24:59;8.02;;;4.97;;
74102;SDS011;62853;46.166;3.640;2022-08-21T00:27:24;6.72;;;4.97;;
74102;SDS011;62853;46.166;3.640;2022-08-21T00:29:50;8.35;;;4.55;;
74102;SDS011;62853;46.166;3.640;2022-08-21T00:32:25;10.40;;;5.57;;
74102;SDS011;62853;46.166;3.640;2022-08-21T00:34:52;7.13;;;4.68;;
74102;SDS011;62853;46.166;3.640;2022-08-21T00:37:18;8.93;;;5.40;;
74102;SDS011;62853;46.166;3.640;2022-08-21T00:39:44;5.70;;;4.80;;
74102;SDS011;62853;46.166;3.640;2022-08-21T00:42:10;10.02;;;5.47;;
74102;SDS011;62853;46.166;3.640;2022-08-21T00:44:40;8.65;;;5.55;;
74102;SDS011;62853;46.166;3.640;2022-08-21T00:47:09;6.88;;;4.78;;
74102;SDS011;62853;46.166;3.640;2022-08-21T00:49:36;7.82;;;4.72;;
74102;SDS011;62853;46.166;3.640;2022-08-21T00:52:03;7.72;;;5.38;;
74102;SDS011;62853;46.166;3.640;2022-08-21T00:54:30;6.85;;;4.95;;
74102;SDS011;62853;46.166;3.640;2022-08-21T00:56:59;6.78;;;5.22;;
74102;SDS011;62853;46.166;3.640;2022-08-21T00:59:28;12.07;;;5.88;;
74102;SDS011;62853;46.166;3.640;2022-08-21T01:01:57;5.85;;;4.97;;
74102;SDS011;62853;46.166;3.640;2022-08-21T01:04:23;6.78;;;5.53;;
74102;SDS011;62853;46.166;3.640;2022-08-21T01:06:48;6.75;;;5.40;;
74102;SDS011;62853;46.166;3.640;2022-08-21T01:09:14;7.45;;;5.75;;
74102;SDS011;62853;46.166;3.640;2022-08-21T01:11:40;6.40;;;5.40;;
74102;SDS011;62853;46.166;3.640;2022-08-21T01:14:08;7.25;;;5.88;;
74102;SDS011;62853;46.166;3.640;2022-08-21T01:16:37;6.85;;;6.10;;
74102;SDS011;62853;46.166;3.640;2022-08-21T01:19:04;6.88;;;6.10;;
74102;SDS011;62853;46.166;3.640;2022-08-21T01:21:30;9.90;;;6.65;;
74102;SDS011;62853;46.166;3.640;2022-08-21T01:23:55;8.63;;;6.38;;
74102;SDS011;62853;46.166;3.640;2022-08-21T01:26:23;7.95;;;6.22;;
74102;SDS011;62853;46.166;3.640;2022-08-21T01:28:54;8.52;;;5.80;;
74102;SDS011;62853;46.166;3.640;2022-08-21T01:31:26;7.13;;;6.05;;
74102;SDS011;62853;46.166;3.640;2022-08-21T01:33:53;7.80;;;6.57;;
74102;SDS011;62853;46.166;3.640;2022-08-21T01:36:19;7.32;;;5.65;;
74102;SDS011;62853;46.166;3.640;2022-08-21T01:38:45;9.70;;;6.35;;
74102;SDS011;62853;46.166;3.640;2022-08-21T01:41:12;6.80;;;5.85;;
74102;SDS011;62853;46.166;3.640;2022-08-21T01:43:38;6.90;;;5.40;;
74102;SDS011;62853;46.166;3.640;2022-08-21T01:46:03;6.65;;;6.03;;
74102;SDS011;62853;46.166;3.640;2022-08-21T01:48:29;7.05;;;5.93;;
74102;SDS011;62853;46.166;3.640;2022-08-21T01:50:54;7.28;;;5.90;;
74102;SDS011;62853;46.166;3.640;2022-08-21T01:53:21;8.00;;;6.03;;
74102;SDS011;62853;46.166;3.640;2022-08-21T01:55:46;7.05;;;5.93;;
74102;SDS011;62853;46.166;3.640;2022-08-21T01:58:11;7.45;;;6.40;;
74102;SDS011;62853;46.166;3.640;2022-08-21T02:00:37;7.03;;;6.28;;
74102;SDS011;62853;46.166;3.640;2022-08-21T02:03:02;11.48;;;6.20;;
74102;SDS011;62853;46.166;3.640;2022-08-21T02:05:28;7.28;;;6.45;;
74102;SDS011;62853;46.166;3.640;2022-08-21T02:07:54;7.93;;;6.80;;
74102;SDS011;62853;46.166;3.640;2022-08-21T02:10:23;8.02;;;7.10;;
74102;SDS011;62853;46.166;3.640;2022-08-21T02:12:51;8.77;;;6.80;;
74102;SDS011;62853;46.166;3.640;2022-08-21T02:15:17;9.07;;;6.28;;
74102;SDS011;62853;46.166;3.640;2022-08-21T02:17:47;8.80;;;6.35;;
74102;SDS011;62853;46.166;3.640;2022-08-21T02:20:19;7.10;;;6.40;;
74102;SDS011;62853;46.166;3.640;2022-08-21T02:22:48;6.78;;;6.18;;
74102;SDS011;62853;46.166;3.640;2022-08-21T02:25:15;8.55;;;7.10;;
74102;SDS011;62853;46.166;3.640;2022-08-21T02:27:42;9.18;;;7.22;;
74102;SDS011;62853;46.166;3.640;2022-08-21T02:30:10;8.40;;;7.20;;
74102;SDS011;62853;46.166;3.640;2022-08-21T02:32:39;7.85;;;7.00;;
74102;SDS011;62853;46.166;3.640;2022-08-21T02:35:04;14.48;;;7.75;;
74102;SDS011;62853;46.166;3.640;2022-08-21T02:37:30;9.23;;;7.53;;
74102;SDS011;62853;46.166;3.640;2022-08-21T02:39:56;8.70;;;7.75;;
74102;SDS011;62853;46.166;3.640;2022-08-21T02:42:21;8.15;;;7.32;;
74102;SDS011;62853;46.166;3.640;2022-08-21T02:44:47;8.95;;;7.38;;
74102;SDS011;62853;46.166;3.640;2022-08-21T02:47:13;9.80;;;7.35;;
74102;SDS011;62853;46.166;3.640;2022-08-21T02:49:39;8.60;;;7.38;;
74102;SDS011;62853;46.166;3.640;2022-08-21T02:52:04;11.00;;;8.27;;
74102;SDS011;62853;46.166;3.640;2022-08-21T02:54:31;10.55;;;7.80;;
74102;SDS011;62853;46.166;3.640;2022-08-21T02:56:56;13.00;;;7.35;;
74102;SDS011;62853;46.166;3.640;2022-08-21T02:59:22;10.45;;;7.25;;
74102;SDS011;62853;46.166;3.640;2022-08-21T03:01:47;7.97;;;7.18;;
74102;SDS011;62853;46.166;3.640;2022-08-21T03:04:13;10.98;;;7.38;;
74102;SDS011;62853;46.166;3.640;2022-08-21T03:06:38;8.13;;;7.32;;
74102;SDS011;62853;46.166;3.640;2022-08-21T03:09:03;9.25;;;7.63;;
74102;SDS011;62853;46.166;3.640;2022-08-21T03:11:29;12.32;;;7.03;;
74102;SDS011;62853;46.166;3.640;2022-08-21T03:13:54;10.23;;;7.85;;
74102;SDS011;62853;46.166;3.640;2022-08-21T03:16:19;8.85;;;7.68;;
74102;SDS011;62853;46.166;3.640;2022-08-21T03:18:45;9.68;;;7.18;;
74102;SDS011;62853;46.166;3.640;2022-08-21T03:21:11;10.48;;;7.43;;
74102;SDS011;62853;46.166;3.640;2022-08-21T03:23:38;10.65;;;7.55;;
74102;SDS011;62853;46.166;3.640;2022-08-21T03:26:05;8.88;;;7.60;;
74102;SDS011;62853;46.166;3.640;2022-08-21T03:28:31;7.95;;;7.10;;
74102;SDS011;62853;46.166;3.640;2022-08-21T03:30:57;8.35;;;7.55;;
74102;SDS011;62853;46.166;3.640;2022-08-21T03:33:22;8.02;;;7.22;;
74102;SDS011;62853;46.166;3.640;2022-08-21T03:35:50;8.88;;;7.63;;
74102;SDS011;62853;46.166;3.640;2022-08-21T03:38:21;8.98;;;8.15;;
74102;SDS011;62853;46.166;3.640;2022-08-21T03:40:47;10.63;;;7.80;;
74102;SDS011;62853;46.166;3.640;2022-08-21T03:43:12;8.95;;;7.38;;
74102;SDS011;62853;46.166;3.640;2022-08-21T03:45:37;8.02;;;7.07;;
74102;SDS011;62853;46.166;3.640;2022-08-21T03:48:04;12.00;;;7.43;;
74102;SDS011;62853;46.166;3.640;2022-08-21T03:50:33;15.60;;;8.38;;
74102;SDS011;62853;46.166;3.640;2022-08-21T03:53:00;11.65;;;7.35;;
74102;SDS011;62853;46.166;3.640;2022-08-21T03:55:26;13.00;;;7.97;;
74102;SDS011;62853;46.166;3.640;2022-08-21T03:57:52;14.93;;;7.47;;
74102;SDS011;62853;46.166;3.640;2022-08-21T04:00:18;9.32;;;7.00;;
74102;SDS011;62853;46.166;3.640;2022-08-21T04:02:44;8.68;;;7.30;;
74102;SDS011;62853;46.166;3.640;2022-08-21T04:05:10;10.05;;;7.50;;
74102;SDS011;62853;46.166;3.640;2022-08-21T04:07:37;12.00;;;7.45;;
74102;SDS011;62853;46.166;3.640;2022-08-21T04:10:03;9.30;;;7.55;;
74102;SDS011;62853;46.166;3.640;2022-08-21T04:12:30;9.82;;;7.43;;
74102;SDS011;62853;46.166;3.640;2022-08-21T04:14:55;13.70;;;7.43;;
74102;SDS011;62853;46.166;3.640;2022-08-21T04:17:21;8.63;;;7.05;;
74102;SDS011;62853;46.166;3.640;2022-08-21T04:19:46;7.63;;;6.65;;
74102;SDS011;62853;46.166;3.640;2022-08-21T04:22:12;12.85;;;6.82;;
74102;SDS011;62853;46.166;3.640;2022-08-21T04:24:37;9.73;;;6.95;;
74102;SDS011;62853;46.166;3.640;2022-08-21T04:27:03;10.13;;;6.70;;
74102;SDS011;62853;46.166;3.640;2022-08-21T04:29:28;13.85;;;6.57;;
74102;SDS011;62853;46.166;3.640;2022-08-21T04:31:53;7.63;;;6.35;;
74102;SDS011;62853;46.166;3.640;2022-08-21T04:34:19;9.23;;;6.55;;
74102;SDS011;62853;46.166;3.640;2022-08-21T04:36:45;8.15;;;6.35;;
74102;SDS011;62853;46.166;3.640;2022-08-21T04:39:10;8.48;;;6.47;;
74102;SDS011;62853;46.166;3.640;2022-08-21T04:41:36;8.32;;;6.10;;
74102;SDS011;62853;46.166;3.640;2022-08-21T04:44:02;7.97;;;6.22;;
74102;SDS011;62853;46.166;3.640;2022-08-21T04:46:28;9.15;;;6.75;;
74102;SDS011;62853;46.166;3.640;2022-08-21T04:48:54;8.98;;;6.32;;
74102;SDS011;62853;46.166;3.640;2022-08-21T04:51:30;8.20;;;6.38;;
74102;SDS011;62853;46.166;3.640;2022-08-21T04:54:07;9.30;;;6.45;;
74102;SDS011;62853;46.166;3.640;2022-08-21T04:56:41;8.70;;;6.25;;
74102;SDS011;62853;46.166;3.640;2022-08-21T04:59:15;8.23;;;6.47;;
74102;SDS011;62853;46.166;3.640;2022-08-21T05:04:10;10.90;;;6.95;;
74102;SDS011;62853;46.166;3.640;2022-08-21T05:06:39;9.75;;;6.47;;
74102;SDS011;62853;46.166;3.640;2022-08-21T05:09:09;7.55;;;5.88;;
74102;SDS011;62853;46.166;3.640;2022-08-21T05:11:39;7.72;;;6.10;;
74102;SDS011;62853;46.166;3.640;2022-08-21T05:14:05;9.55;;;6.53;;
74102;SDS011;62853;46.166;3.640;2022-08-21T05:16:30;9.45;;;6.15;;
74102;SDS011;62853;46.166;3.640;2022-08-21T05:18:56;9.40;;;6.78;;
74102;SDS011;62853;46.166;3.640;2022-08-21T05:21:21;8.63;;;5.97;;
74102;SDS011;62853;46.166;3.640;2022-08-21T05:23:46;15.18;;;6.68;;
74102;SDS011;62853;46.166;3.640;2022-08-21T05:26:12;12.25;;;6.28;;
74102;SDS011;62853;46.166;3.640;2022-08-21T05:28:37;9.35;;;6.25;;
74102;SDS011;62853;46.166;3.640;2022-08-21T05:31:03;11.60;;;6.93;;
74102;SDS011;62853;46.166;3.640;2022-08-21T05:33:28;10.63;;;6.03;;
74102;SDS011;62853;46.166;3.640;2022-08-21T05:35:54;10.55;;;6.32;;
74102;SDS011;62853;46.166;3.640;2022-08-21T05:38:20;9.63;;;6.40;;
74102;SDS011;62853;46.166;3.640;2022-08-21T05:40:46;12.15;;;6.43;;
74102;SDS011;62853;46.166;3.640;2022-08-21T05:43:12;10.93;;;6.65;;
74102;SDS011;62853;46.166;3.640;2022-08-21T05:45:38;9.63;;;5.95;;
74102;SDS011;62853;46.166;3.640;2022-08-21T05:48:07;8.18;;;6.43;;
74102;SDS011;62853;46.166;3.640;2022-08-21T05:50:34;12.95;;;6.57;;
74102;SDS011;62853;46.166;3.640;2022-08-21T05:53:00;9.80;;;6.60;;
74102;SDS011;62853;46.166;3.640;2022-08-21T05:55:26;10.80;;;5.97;;
74102;SDS011;62853;46.166;3.640;2022-08-21T05:57:51;9.15;;;5.60;;
74102;SDS011;62853;46.166;3.640;2022-08-21T06:00:17;9.18;;;5.85;;
74102;SDS011;62853;46.166;3.640;2022-08-21T06:02:42;9.45;;;5.50;;
74102;SDS011;62853;46.166;3.640;2022-08-21T06:05:08;10.80;;;6.03;;
74102;SDS011;62853;46.166;3.640;2022-08-21T06:07:33;12.60;;;5.88;;
74102;SDS011;62853;46.166;3.640;2022-08-21T06:09:59;9.57;;;5.30;;
74102;SDS011;62853;46.166;3.640;2022-08-21T06:12:24;9.55;;;6.20;;
74102;SDS011;62853;46.166;3.640;2022-08-21T06:14:50;10.70;;;5.88;;
74102;SDS011;62853;46.166;3.640;2022-08-21T06:17:16;9.32;;;5.57;;
74102;SDS011;62853;46.166;3.640;2022-08-21T06:19:42;10.60;;;5.60;;
74102;SDS011;62853;46.166;3.640;2022-08-21T06:22:08;9.63;;;5.40;;
74102;SDS011;62853;46.166;3.640;2022-08-21T06:24:33;6.00;;;5.40;;
74102;SDS011;62853;46.166;3.640;2022-08-21T06:27:03;9.50;;;5.05;;
74102;SDS011;62853;46.166;3.640;2022-08-21T06:29:30;7.57;;;4.43;;
74102;SDS011;62853;46.166;3.640;2022-08-21T06:31:55;12.02;;;4.88;;
74102;SDS011;62853;46.166;3.640;2022-08-21T06:34:21;8.05;;;4.30;;
74102;SDS011;62853;46.166;3.640;2022-08-21T06:36:46;10.15;;;5.15;;
74102;SDS011;62853;46.166;3.640;2022-08-21T06:39:12;14.70;;;4.68;;
74102;SDS011;62853;46.166;3.640;2022-08-21T06:41:38;8.70;;;4.50;;
74102;SDS011;62853;46.166;3.640;2022-08-21T06:44:03;10.30;;;4.40;;
74102;SDS011;62853;46.166;3.640;2022-08-21T06:46:29;8.52;;;4.07;;
74102;SDS011;62853;46.166;3.640;2022-08-21T06:48:55;11.75;;;4.10;;
74102;SDS011;62853;46.166;3.640;2022-08-21T06:51:22;9.65;;;4.00;;
74102;SDS011;62853;46.166;3.640;2022-08-21T06:53:47;7.43;;;3.88;;
74102;SDS011;62853;46.166;3.640;2022-08-21T06:56:13;12.20;;;3.70;;
74102;SDS011;62853;46.166;3.640;2022-08-21T06:58:39;7.75;;;3.20;;
74102;SDS011;62853;46.166;3.640;2022-08-21T07:01:04;9.57;;;3.25;;
74102;SDS011;62853;46.166;3.640;2022-08-21T07:03:31;11.05;;;4.45;;
74102;SDS011;62853;46.166;3.640;2022-08-21T07:05:58;8.50;;;3.28;;
74102;SDS011;62853;46.166;3.640;2022-08-21T07:08:25;7.47;;;3.05;;
74102;SDS011;62853;46.166;3.640;2022-08-21T07:10:52;8.18;;;3.10;;
74102;SDS011;62853;46.166;3.640;2022-08-21T07:13:20;9.18;;;3.00;;
74102;SDS011;62853;46.166;3.640;2022-08-21T07:15:45;10.13;;;3.45;;
74102;SDS011;62853;46.166;3.640;2022-08-21T07:18:11;13.23;;;4.03;;
74102;SDS011;62853;46.166;3.640;2022-08-21T07:20:38;8.85;;;3.25;;
74102;SDS011;62853;46.166;3.640;2022-08-21T07:23:05;10.10;;;3.70;;
74102;SDS011;62853;46.166;3.640;2022-08-21T07:25:34;12.25;;;3.70;;
74102;SDS011;62853;46.166;3.640;2022-08-21T07:27:59;11.10;;;3.75;;
74102;SDS011;62853;46.166;3.640;2022-08-21T07:30:25;11.23;;;3.75;;
74102;SDS011;62853;46.166;3.640;2022-08-21T07:32:51;10.32;;;3.92;;
74102;SDS011;62853;46.166;3.640;2022-08-21T07:35:17;10.30;;;3.25;;
74102;SDS011;62853;46.166;3.640;2022-08-21T07:37:43;12.48;;;3.50;;
74102;SDS011;62853;46.166;3.640;2022-08-21T07:40:09;14.45;;;3.70;;
74102;SDS011;62853;46.166;3.640;2022-08-21T07:42:43;11.57;;;3.40;;
74102;SDS011;62853;46.166;3.640;2022-08-21T07:45:11;11.95;;;2.88;;
74102;SDS011;62853;46.166;3.640;2022-08-21T07:47:37;12.68;;;3.28;;
74102;SDS011;62853;46.166;3.640;2022-08-21T07:50:04;12.10;;;3.20;;
74102;SDS011;62853;46.166;3.640;2022-08-21T07:52:30;8.55;;;2.53;;
74102;SDS011;62853;46.166;3.640;2022-08-21T07:54:57;10.68;;;3.10;;
74102;SDS011;62853;46.166;3.640;2022-08-21T07:57:23;13.88;;;2.90;;
74102;SDS011;62853;46.166;3.640;2022-08-21T07:59:48;12.88;;;2.95;;
74102;SDS011;62853;46.166;3.640;2022-08-21T08:02:27;12.30;;;3.72;;
74102;SDS011;62853;46.166;3.640;2022-08-21T08:04:57;10.40;;;3.35;;
74102;SDS011;62853;46.166;3.640;2022-08-21T08:07:24;10.05;;;2.80;;
74102;SDS011;62853;46.166;3.640;2022-08-21T08:09:49;8.13;;;2.45;;
74102;SDS011;62853;46.166;3.640;2022-08-21T08:12:15;9.25;;;3.05;;
74102;SDS011;62853;46.166;3.640;2022-08-21T08:14:40;11.43;;;2.70;;
74102;SDS011;62853;46.166;3.640;2022-08-21T08:17:05;10.07;;;3.03;;
74102;SDS011;62853;46.166;3.640;2022-08-21T08:19:31;10.57;;;2.42;;
74102;SDS011;62853;46.166;3.640;2022-08-21T08:21:56;10.95;;;2.53;;
74102;SDS011;62853;46.166;3.640;2022-08-21T08:24:22;9.55;;;2.67;;
74102;SDS011;62853;46.166;3.640;2022-08-21T08:26:47;11.13;;;3.10;;
74102;SDS011;62853;46.166;3.640;2022-08-21T08:29:12;8.82;;;2.58;;
74102;SDS011;62853;46.166;3.640;2022-08-21T08:31:38;9.18;;;3.17;;
74102;SDS011;62853;46.166;3.640;2022-08-21T08:34:03;8.48;;;2.88;;
74102;SDS011;62853;46.166;3.640;2022-08-21T08:36:32;11.75;;;2.60;;
74102;SDS011;62853;46.166;3.640;2022-08-21T08:39:00;13.45;;;3.45;;
74102;SDS011;62853;46.166;3.640;2022-08-21T08:41:27;8.15;;;2.25;;
74102;SDS011;62853;46.166;3.640;2022-08-21T08:43:53;9.32;;;2.30;;
74102;SDS011;62853;46.166;3.640;2022-08-21T08:46:34;11.60;;;2.90;;
74102;SDS011;62853;46.166;3.640;2022-08-21T08:49:08;11.65;;;2.85;;
74102;SDS011;62853;46.166;3.640;2022-08-21T08:54:10;8.23;;;2.90;;
74102;SDS011;62853;46.166;3.640;2022-08-21T08:56:40;9.15;;;3.10;;
74102;SDS011;62853;46.166;3.640;2022-08-21T08:59:18;10.63;;;2.60;;
74102;SDS011;62853;46.166;3.640;2022-08-21T09:01:47;9.10;;;2.65;;
74102;SDS011;62853;46.166;3.640;2022-08-21T09:04:13;11.60;;;3.60;;
74102;SDS011;62853;46.166;3.640;2022-08-21T09:06:52;8.10;;;2.85;;
74102;SDS011;62853;46.166;3.640;2022-08-21T09:09:25;9.23;;;3.60;;
74102;SDS011;62853;46.166;3.640;2022-08-21T09:12:20;7.47;;;2.95;;
74102;SDS011;62853;46.166;3.640;2022-08-21T09:15:01;9.15;;;3.53;;
74102;SDS011;62853;46.166;3.640;2022-08-21T09:26:04;6.97;;;2.30;;
74102;SDS011;62853;46.166;3.640;2022-08-21T09:28:41;7.07;;;2.30;;
74102;SDS011;62853;46.166;3.640;2022-08-21T09:31:10;6.60;;;2.08;;
74102;SDS011;62853;46.166;3.640;2022-08-21T09:33:47;9.27;;;2.40;;
74102;SDS011;62853;46.166;3.640;2022-08-21T09:36:12;11.23;;;2.17;;
74102;SDS011;62853;46.166;3.640;2022-08-21T09:38:52;7.82;;;2.03;;
74102;SDS011;62853;46.166;3.640;2022-08-21T09:41:25;6.72;;;2.17;;
74102;SDS011;62853;46.166;3.640;2022-08-21T09:43:53;8.70;;;1.80;;
74102;SDS011;62853;46.166;3.640;2022-08-21T09:46:23;9.95;;;2.30;;
74102;SDS011;62853;46.166;3.640;2022-08-21T09:48:51;7.65;;;2.20;;
74102;SDS011;62853;46.166;3.640;2022-08-21T09:51:22;9.10;;;2.08;;
74102;SDS011;62853;46.166;3.640;2022-08-21T09:56:38;8.43;;;2.50;;
74102;SDS011;62853;46.166;3.640;2022-08-21T09:59:33;5.43;;;1.60;;
74102;SDS011;62853;46.166;3.640;2022-08-21T10:02:00;10.02;;;2.47;;
74102;SDS011;62853;46.166;3.640;2022-08-21T10:04:29;6.57;;;1.83;;
74102;SDS011;62853;46.166;3.640;2022-08-21T10:07:09;6.57;;;1.98;;
74102;SDS011;62853;46.166;3.640;2022-08-21T10:09:37;8.48;;;2.38;;
74102;SDS011;62853;46.166;3.640;2022-08-21T10:12:20;7.60;;;2.20;;
74102;SDS011;62853;46.166;3.640;2022-08-21T10:20:19;8.65;;;1.90;;
74102;SDS011;62853;46.166;3.640;2022-08-21T10:25:19;4.35;;;1.20;;
74102;SDS011;62853;46.166;3.640;2022-08-21T10:28:17;7.32;;;1.73;;
74102;SDS011;62853;46.166;3.640;2022-08-21T10:33:46;4.50;;;1.40;;
74102;SDS011;62853;46.166;3.640;2022-08-21T10:36:14;4.20;;;1.58;;
74102;SDS011;62853;46.166;3.640;2022-08-21T10:47:32;7.70;;;1.52;;
74102;SDS011;62853;46.166;3.640;2022-08-21T10:58:25;5.45;;;1.55;;
74102;SDS011;62853;46.166;3.640;2022-08-21T11:00:57;6.75;;;1.50;;
74102;SDS011;62853;46.166;3.640;2022-08-21T11:03:33;6.63;;;2.15;;
74102;SDS011;62853;46.166;3.640;2022-08-21T11:06:14;4.90;;;1.60;;
74102;SDS011;62853;46.166;3.640;2022-08-21T11:13:58;7.65;;;1.85;;
74102;SDS011;62853;46.166;3.640;2022-08-21T11:16:43;5.97;;;1.60;;
74102;SDS011;62853;46.166;3.640;2022-08-21T11:24:49;8.40;;;1.92;;
74102;SDS011;62853;46.166;3.640;2022-08-21T11:29:55;7.55;;;2.10;;
74102;SDS011;62853;46.166;3.640;2022-08-21T11:46:00;5.47;;;1.83;;
74102;SDS011;62853;46.166;3.640;2022-08-21T11:51:04;6.03;;;2.00;;
74102;SDS011;62853;46.166;3.640;2022-08-21T11:53:34;6.82;;;1.80;;
74102;SDS011;62853;46.166;3.640;2022-08-21T11:56:31;5.25;;;1.77;;
74102;SDS011;62853;46.166;3.640;2022-08-21T11:59:11;6.85;;;1.58;;
74102;SDS011;62853;46.166;3.640;2022-08-21T12:01:45;8.25;;;2.42;;
74102;SDS011;62853;46.166;3.640;2022-08-21T12:04:18;7.20;;;2.13;;
74102;SDS011;62853;46.166;3.640;2022-08-21T12:06:44;7.10;;;1.80;;
74102;SDS011;62853;46.166;3.640;2022-08-21T12:09:26;5.70;;;1.73;;
74102;SDS011;62853;46.166;3.640;2022-08-21T12:14:42;6.15;;;1.80;;
74102;SDS011;62853;46.166;3.640;2022-08-21T12:17:16;7.43;;;1.90;;
74102;SDS011;62853;46.166;3.640;2022-08-21T12:19:59;5.00;;;1.95;;
74102;SDS011;62853;46.166;3.640;2022-08-21T12:22:39;3.40;;;1.60;;
74102;SDS011;62853;46.166;3.640;2022-08-21T12:25:09;6.85;;;1.85;;
74102;SDS011;62853;46.166;3.640;2022-08-21T12:27:44;6.70;;;1.90;;
74102;SDS011;62853;46.166;3.640;2022-08-21T12:30:20;5.88;;;1.90;;
74102;SDS011;62853;46.166;3.640;2022-08-21T12:33:01;6.88;;;2.13;;
74102;SDS011;62853;46.166;3.640;2022-08-21T12:35:37;4.97;;;2.00;;
74102;SDS011;62853;46.166;3.640;2022-08-21T12:38:26;5.68;;;2.10;;
74102;SDS011;62853;46.166;3.640;2022-08-21T12:41:04;7.63;;;2.40;;
74102;SDS011;62853;46.166;3.640;2022-08-21T12:44:08;4.90;;;1.90;;
74102;SDS011;62853;46.166;3.640;2022-08-21T12:46:31;6.93;;;2.25;;
74102;SDS011;62853;46.166;3.640;2022-08-21T12:49:03;6.82;;;2.15;;
74102;SDS011;62853;46.166;3.640;2022-08-21T12:54:39;6.15;;;2.08;;
74102;SDS011;62853;46.166;3.640;2022-08-21T12:57:07;7.70;;;2.03;;
74102;SDS011;62853;46.166;3.640;2022-08-21T12:59:37;7.35;;;2.50;;
74102;SDS011;62853;46.166;3.640;2022-08-21T13:02:05;6.93;;;2.08;;
74102;SDS011;62853;46.166;3.640;2022-08-21T13:04:41;6.57;;;2.45;;
74102;SDS011;62853;46.166;3.640;2022-08-21T13:07:09;10.80;;;2.65;;
74102;SDS011;62853;46.166;3.640;2022-08-21T13:09:47;7.05;;;2.25;;
74102;SDS011;62853;46.166;3.640;2022-08-21T13:12:14;8.18;;;2.63;;
74102;SDS011;62853;46.166;3.640;2022-08-21T13:14:42;8.50;;;2.60;;
74102;SDS011;62853;46.166;3.640;2022-08-21T13:17:11;6.93;;;2.80;;
74102;SDS011;62853;46.166;3.640;2022-08-21T13:19:37;6.97;;;2.45;;
74102;SDS011;62853;46.166;3.640;2022-08-21T13:22:03;7.97;;;2.60;;
74102;SDS011;62853;46.166;3.640;2022-08-21T13:24:30;5.93;;;2.38;;
74102;SDS011;62853;46.166;3.640;2022-08-21T13:26:58;7.85;;;2.58;;
74102;SDS011;62853;46.166;3.640;2022-08-21T13:29:28;8.82;;;2.15;;
74102;SDS011;62853;46.166;3.640;2022-08-21T13:32:00;7.60;;;2.60;;
74102;SDS011;62853;46.166;3.640;2022-08-21T13:34:31;7.72;;;2.92;;
74102;SDS011;62853;46.166;3.640;2022-08-21T13:37:01;7.78;;;3.28;;
74102;SDS011;62853;46.166;3.640;2022-08-21T13:41:58;9.05;;;3.28;;
74102;SDS011;62853;46.166;3.640;2022-08-21T13:44:34;8.73;;;3.60;;
74102;SDS011;62853;46.166;3.640;2022-08-21T13:47:00;7.25;;;3.42;;
74102;SDS011;62853;46.166;3.640;2022-08-21T13:49:35;7.90;;;3.70;;
74102;SDS011;62853;46.166;3.640;2022-08-21T13:52:03;8.27;;;3.60;;
74102;SDS011;62853;46.166;3.640;2022-08-21T13:54:35;6.50;;;3.90;;
74102;SDS011;62853;46.166;3.640;2022-08-21T13:57:03;9.45;;;3.67;;
74102;SDS011;62853;46.166;3.640;2022-08-21T13:59:33;6.80;;;3.35;;
74102;SDS011;62853;46.166;3.640;2022-08-21T14:04:42;10.63;;;3.97;;
74102;SDS011;62853;46.166;3.640;2022-08-21T14:07:17;8.82;;;3.53;;
74102;SDS011;62853;46.166;3.640;2022-08-21T14:09:46;7.97;;;4.15;;
74102;SDS011;62853;46.166;3.640;2022-08-21T14:14:57;7.47;;;3.45;;
74102;SDS011;62853;46.166;3.640;2022-08-21T14:17:29;8.50;;;3.30;;
74102;SDS011;62853;46.166;3.640;2022-08-21T14:20:02;8.07;;;3.25;;
74102;SDS011;62853;46.166;3.640;2022-08-21T14:22:36;10.07;;;3.90;;
74102;SDS011;62853;46.166;3.640;2022-08-21T14:25:14;6.93;;;3.20;;
74102;SDS011;62853;46.166;3.640;2022-08-21T14:30:50;9.60;;;3.97;;
74102;SDS011;62853;46.166;3.640;2022-08-21T14:33:20;10.30;;;3.17;;
74102;SDS011;62853;46.166;3.640;2022-08-21T14:35:56;8.23;;;3.40;;
74102;SDS011;62853;46.166;3.640;2022-08-21T14:38:22;6.38;;;3.17;;
74102;SDS011;62853;46.166;3.640;2022-08-21T14:40:51;7.72;;;3.35;;
74102;SDS011;62853;46.166;3.640;2022-08-21T14:43:20;6.97;;;3.63;;
74102;SDS011;62853;46.166;3.640;2022-08-21T14:45:46;10.00;;;3.67;;
74102;SDS011;62853;46.166;3.640;2022-08-21T14:48:12;7.30;;;3.80;;
74102;SDS011;62853;46.166;3.640;2022-08-21T14:50:38;8.30;;;3.22;;
74102;SDS011;62853;46.166;3.640;2022-08-21T14:53:04;9.80;;;3.38;;
74102;SDS011;62853;46.166;3.640;2022-08-21T14:55:30;8.30;;;3.00;;
74102;SDS011;62853;46.166;3.640;2022-08-21T14:58:16;10.27;;;3.20;;
74102;SDS011;62853;46.166;3.640;2022-08-21T15:00:41;5.07;;;3.30;;
74102;SDS011;62853;46.166;3.640;2022-08-21T15:03:07;10.48;;;3.38;;
74102;SDS011;62853;46.166;3.640;2022-08-21T15:05:32;9.38;;;3.60;;
74102;SDS011;62853;46.166;3.640;2022-08-21T15:07:58;8.43;;;3.13;;
74102;SDS011;62853;46.166;3.640;2022-08-21T15:10:23;7.70;;;3.55;;
74102;SDS011;62853;46.166;3.640;2022-08-21T15:12:48;6.15;;;2.80;;
74102;SDS011;62853;46.166;3.640;2022-08-21T15:15:14;11.23;;;3.65;;
74102;SDS011;62853;46.166;3.640;2022-08-21T15:17:39;9.75;;;3.50;;
74102;SDS011;62853;46.166;3.640;2022-08-21T15:20:05;7.43;;;3.42;;
74102;SDS011;62853;46.166;3.640;2022-08-21T15:22:32;10.40;;;3.63;;
74102;SDS011;62853;46.166;3.640;2022-08-21T15:24:58;7.70;;;3.55;;
74102;SDS011;62853;46.166;3.640;2022-08-21T15:27:23;9.95;;;3.72;;
74102;SDS011;62853;46.166;3.640;2022-08-21T15:29:49;10.93;;;4.00;;
74102;SDS011;62853;46.166;3.640;2022-08-21T15:32:19;11.52;;;3.80;;
74102;SDS011;62853;46.166;3.640;2022-08-21T15:34:48;7.63;;;3.20;;
74102;SDS011;62853;46.166;3.640;2022-08-21T15:37:14;8.90;;;3.47;;
74102;SDS011;62853;46.166;3.640;2022-08-21T15:39:39;11.93;;;3.67;;
74102;SDS011;62853;46.166;3.640;2022-08-21T15:42:05;8.68;;;3.22;;
74102;SDS011;62853;46.166;3.640;2022-08-21T15:44:31;8.77;;;3.30;;
74102;SDS011;62853;46.166;3.640;2022-08-21T15:46:56;9.20;;;3.80;;
74102;SDS011;62853;46.166;3.640;2022-08-21T15:49:23;9.55;;;3.50;;
74102;SDS011;62853;46.166;3.640;2022-08-21T15:51:48;7.20;;;2.90;;
74102;SDS011;62853;46.166;3.640;2022-08-21T15:54:14;17.13;;;3.83;;
74102;SDS011;62853;46.166;3.640;2022-08-21T15:56:40;8.65;;;2.90;;
74102;SDS011;62853;46.166;3.640;2022-08-21T15:59:17;7.90;;;2.60;;
74102;SDS011;62853;46.166;3.640;2022-08-21T16:01:46;8.05;;;2.42;;
74102;SDS011;62853;46.166;3.640;2022-08-21T16:04:18;5.53;;;2.20;;
74102;SDS011;62853;46.166;3.640;2022-08-21T16:06:49;7.55;;;2.40;;
74102;SDS011;62853;46.166;3.640;2022-08-21T16:09:14;8.35;;;2.30;;
74102;SDS011;62853;46.166;3.640;2022-08-21T16:11:41;12.43;;;2.38;;
74102;SDS011;62853;46.166;3.640;2022-08-21T16:14:06;7.72;;;2.15;;
74102;SDS011;62853;46.166;3.640;2022-08-21T16:16:33;7.38;;;2.38;;
74102;SDS011;62853;46.166;3.640;2022-08-21T16:18:59;4.57;;;1.98;;
74102;SDS011;62853;46.166;3.640;2022-08-21T16:21:24;9.30;;;2.53;;